Time;durP1;ratioP1;P1;durP2;ratioP2;P2;SDS_P1;SDS_P2;PMS_P1;PMS_P2;Temp;Humidity;BMP_temperature;BMP_pressure;BME280_temperature;BME280_humidity;BME280_pressure;Samples;Min_cycle;Max_cycle;Signal;HPM_P1;HPM_P2
2021/12/13 00:01:06;;;;;;;87.13;25.17;;;;;;;;;;5000874;28;20509;-85
2021/12/13 00:03:34;;;;;;;47.33;21.50;;;;;;;;;;5000421;28;20819;-85
2021/12/13 00:06:08;;;;;;;72.70;22.67;;;;;;;;;;5001549;28;20597;-85
2021/12/13 00:08:36;;;;;;;51.93;21.23;;;;;;;;;;5001499;28;20486;-85
2021/12/13 00:11:08;;;;;;;57.87;19.90;;;;;;;;;;4999625;28;20485;-85
2021/12/13 00:13:37;;;;;;;47.60;21.57;;;;;;;;;;5000441;28;20545;-85
2021/12/13 00:16:04;;;;;;;47.00;21.10;;;;;;;;;;5000107;28;20464;-86
2021/12/13 00:18:34;;;;;;;58.67;22.47;;;;;;;;;;5001926;28;20508;-86
2021/12/13 00:21:07;;;;;;;70.93;23.50;;;;;;;;;;5000924;28;20519;-85
2021/12/13 00:23:35;;;;;;;64.00;21.67;;;;;;;;;;5001843;28;20470;-85
2021/12/13 00:26:02;;;;;;;68.43;21.87;;;;;;;;;;4999380;28;21010;-85
2021/12/13 00:28:35;;;;;;;45.77;21.23;;;;;;;;;;5000702;28;20486;-85
2021/12/13 00:31:07;;;;;;;58.17;21.03;;;;;;;;;;5000054;28;20829;-85
2021/12/13 00:33:37;;;;;;;54.47;21.47;;;;;;;;;;5001006;28;20482;-86
2021/12/13 00:36:07;;;;;;;57.03;19.67;;;;;;;;;;4998262;28;20551;-85
2021/12/13 00:38:37;;;;;;;78.00;22.33;;;;;;;;;;4999789;28;20838;-85
2021/12/13 00:41:04;;;;;;;61.90;22.87;;;;;;;;;;4996269;28;20478;-86
2021/12/13 00:43:35;;;;;;;67.20;22.57;;;;;;;;;;4986874;28;20503;-85
2021/12/13 00:46:02;;;;;;;54.17;22.33;;;;;;;;;;4986521;28;20450;-85
2021/12/13 00:48:30;;;;;;;77.77;25.13;;;;;;;;;;4985661;28;21168;-85
2021/12/13 00:50:59;;;;;;;53.57;20.93;;;;;;;;;;4986391;28;20995;-85
2021/12/13 00:53:27;;;;;;;49.97;20.13;;;;;;;;;;4986055;28;20477;-85
2021/12/13 00:55:54;;;;;;;66.30;22.17;;;;;;;;;;4986783;28;20450;-85
2021/12/13 00:58:22;;;;;;;41.33;19.40;;;;;;;;;;4986373;28;20474;-85
2021/12/13 01:00:49;;;;;;;45.43;18.97;;;;;;;;;;4986334;28;20470;-85
2021/12/13 01:03:17;;;;;;;65.63;21.13;;;;;;;;;;4986861;28;20455;-85
2021/12/13 01:05:49;;;;;;;55.43;22.30;;;;;;;;;;4987511;28;20505;-85
2021/12/13 01:08:21;;;;;;;57.20;21.57;;;;;;;;;;4986739;28;20458;-86
2021/12/13 01:11:05;;;;;;;50.10;20.97;;;;;;;;;;4986627;28;20534;-85
2021/12/13 01:13:35;;;;;;;46.00;19.60;;;;;;;;;;4987304;28;20998;-86
2021/12/13 01:16:11;;;;;;;52.67;21.47;;;;;;;;;;4987480;28;20460;-86
2021/12/13 01:18:57;;;;;;;55.53;23.13;;;;;;;;;;4986827;28;20474;-85
2021/12/13 01:21:31;;;;;;;60.60;22.70;;;;;;;;;;4986507;28;20891;-85
2021/12/13 01:24:05;;;;;;;59.93;24.03;;;;;;;;;;4986951;28;20543;-85
2021/12/13 01:26:37;;;;;;;52.97;21.00;;;;;;;;;;4986835;28;20454;-86
2021/12/13 01:29:08;;;;;;;47.00;20.30;;;;;;;;;;4984607;28;21028;-86
2021/12/13 01:31:36;;;;;;;56.67;21.77;;;;;;;;;;4986344;28;20483;-86
2021/12/13 01:34:03;;;;;;;65.87;23.50;;;;;;;;;;4984954;28;20488;-86
2021/12/13 01:36:37;;;;;;;75.77;24.00;;;;;;;;;;4986623;28;20470;-85
2021/12/13 01:39:06;;;;;;;58.20;22.90;;;;;;;;;;4986178;28;20592;-86
2021/12/13 01:41:34;;;;;;;72.23;23.97;;;;;;;;;;4986946;28;20517;-86
2021/12/13 01:44:02;;;;;;;65.13;23.30;;;;;;;;;;4984575;28;20998;-86
2021/12/13 01:46:34;;;;;;;59.47;23.40;;;;;;;;;;4984735;28;20911;-86
2021/12/13 01:49:01;;;;;;;59.53;21.60;;;;;;;;;;4984609;28;20900;-85
2021/12/13 01:51:33;;;;;;;53.43;21.90;;;;;;;;;;4986009;28;20926;-86
2021/12/13 01:54:01;;;;;;;60.20;23.37;;;;;;;;;;4985250;28;20560;-85
2021/12/13 01:59:41;;;;;;;69.93;24.57;;;;;;;;;;4978991;28;20515;-85
2021/12/13 02:02:11;;;;;;;60.20;23.07;;;;;;;;;;4984408;28;21047;-86
2021/12/13 02:04:37;;;;;;;72.20;26.27;;;;;;;;;;4983367;28;20476;-85
2021/12/13 02:07:05;;;;;;;69.90;24.93;;;;;;;;;;4985352;28;20467;-85
2021/12/13 02:09:33;;;;;;;52.67;23.47;;;;;;;;;;4983754;28;20560;-85
2021/12/13 02:12:10;;;;;;;68.73;26.23;;;;;;;;;;4983813;28;20981;-85
2021/12/13 02:14:43;;;;;;;74.03;26.27;;;;;;;;;;4983833;28;20549;-86
2021/12/13 02:17:12;;;;;;;56.80;22.90;;;;;;;;;;4984691;28;20517;-85
2021/12/13 02:19:41;;;;;;;80.60;24.27;;;;;;;;;;4982371;28;20481;-86
2021/12/13 02:22:10;;;;;;;86.83;25.87;;;;;;;;;;4984208;28;20821;-86
2021/12/13 02:24:38;;;;;;;78.03;25.50;;;;;;;;;;4984641;28;20901;-86
2021/12/13 02:27:06;;;;;;;87.37;27.67;;;;;;;;;;4985678;28;20522;-86
2021/12/13 02:29:37;;;;;;;76.73;26.30;;;;;;;;;;4982977;28;20571;-86
2021/12/13 02:32:04;;;;;;;73.73;26.73;;;;;;;;;;4984385;28;20450;-86
2021/12/13 02:34:33;;;;;;;90.50;28.00;;;;;;;;;;4982907;28;20521;-85
2021/12/13 02:36:59;;;;;;;64.43;25.57;;;;;;;;;;4984460;28;20455;-86
2021/12/13 02:39:26;;;;;;;86.00;29.13;;;;;;;;;;4983514;28;20542;-85
2021/12/13 02:41:55;;;;;;;47.27;22.20;;;;;;;;;;4983240;28;21047;-85
2021/12/13 02:44:23;;;;;;;66.73;25.03;;;;;;;;;;4984126;28;21107;-86
2021/12/13 02:46:49;;;;;;;78.80;26.60;;;;;;;;;;4984853;28;20446;-85
2021/12/13 02:49:17;;;;;;;59.53;23.87;;;;;;;;;;4983086;28;20498;-86
2021/12/13 02:51:45;;;;;;;62.87;25.13;;;;;;;;;;4978172;23;20496;-83
2021/12/13 02:54:16;;;;;;;62.93;23.50;;;;;;;;;;4951631;28;20976;-82
2021/12/13 02:56:43;;;;;;;56.30;22.40;;;;;;;;;;4955938;28;20939;-81
2021/12/13 02:59:11;;;;;;;67.37;24.47;;;;;;;;;;4952870;28;20820;-84
2021/12/13 03:01:39;;;;;;;52.40;24.03;;;;;;;;;;4952316;28;20485;-82
2021/12/13 03:04:07;;;;;;;63.33;23.50;;;;;;;;;;4955645;28;20488;-83
2021/12/13 03:06:35;;;;;;;57.20;23.77;;;;;;;;;;4957858;28;20456;-83
2021/12/13 03:09:06;;;;;;;56.23;23.97;;;;;;;;;;4952963;28;20475;-83
2021/12/13 03:11:34;;;;;;;73.07;25.60;;;;;;;;;;4955026;28;20491;-83
2021/12/13 03:14:02;;;;;;;60.23;26.03;;;;;;;;;;4954621;28;20560;-82
2021/12/13 03:16:31;;;;;;;68.07;26.87;;;;;;;;;;4954468;28;20459;-84
2021/12/13 03:19:00;;;;;;;58.67;25.10;;;;;;;;;;4953341;28;20506;-82
2021/12/13 03:21:42;;;;;;;67.70;27.80;;;;;;;;;;4956441;28;20475;-83
2021/12/13 03:24:18;;;;;;;75.13;25.17;;;;;;;;;;4954763;28;20486;-84
2021/12/13 03:26:54;;;;;;;59.30;25.67;;;;;;;;;;4954207;28;20472;-82
2021/12/13 03:29:26;;;;;;;73.23;26.40;;;;;;;;;;4952631;28;20891;-83
2021/12/13 03:31:56;;;;;;;72.13;27.13;;;;;;;;;;4955096;28;20853;-82
2021/12/13 03:34:25;;;;;;;48.47;22.53;;;;;;;;;;4953456;28;20479;-83
2021/12/13 03:36:56;;;;;;;68.10;25.97;;;;;;;;;;4962671;28;20451;-83
2021/12/13 03:39:23;;;;;;;59.63;25.90;;;;;;;;;;4956803;28;20488;-84
2021/12/13 03:41:52;;;;;;;68.70;26.40;;;;;;;;;;4953931;28;20464;-84
2021/12/13 03:44:21;;;;;;;80.77;27.40;;;;;;;;;;4957105;28;20483;-84
2021/12/13 03:46:48;;;;;;;58.73;24.00;;;;;;;;;;4959269;28;20460;-83
2021/12/13 03:49:19;;;;;;;61.13;26.27;;;;;;;;;;4955183;28;20480;-84
2021/12/13 03:51:45;;;;;;;74.80;26.67;;;;;;;;;;4960363;28;20591;-82
2021/12/13 03:54:13;;;;;;;65.00;27.53;;;;;;;;;;4957226;28;20507;-82
2021/12/13 03:56:41;;;;;;;76.57;30.07;;;;;;;;;;4958198;28;20460;-81
2021/12/13 03:59:09;;;;;;;82.37;29.73;;;;;;;;;;4954722;28;20573;-83
2021/12/13 04:01:39;;;;;;;67.80;27.60;;;;;;;;;;4957893;28;20555;-83
2021/12/13 04:04:08;;;;;;;62.07;26.90;;;;;;;;;;4954475;28;20563;-83
2021/12/13 04:06:44;;;;;;;75.17;28.93;;;;;;;;;;4958997;28;20884;-84
2021/12/13 04:09:10;;;;;;;88.07;30.20;;;;;;;;;;4956699;28;20479;-81
2021/12/13 04:11:40;;;;;;;71.50;26.90;;;;;;;;;;4959412;28;21014;-83
2021/12/13 04:14:11;;;;;;;82.83;29.60;;;;;;;;;;4957162;28;20480;-84
2021/12/13 04:16:48;;;;;;;77.10;30.00;;;;;;;;;;4957494;28;20545;-82
2021/12/13 04:19:18;;;;;;;98.20;31.97;;;;;;;;;;4954664;28;20558;-81
2021/12/13 04:21:48;;;;;;;92.77;28.70;;;;;;;;;;4954365;28;21007;-84
2021/12/13 04:24:17;;;;;;;75.77;28.23;;;;;;;;;;4960579;28;20476;-85
2021/12/13 04:26:45;;;;;;;86.67;29.63;;;;;;;;;;4960065;28;22099;-83
2021/12/13 04:29:13;;;;;;;86.97;31.77;;;;;;;;;;4962967;28;20475;-83
2021/12/13 04:31:40;;;;;;;93.40;32.93;;;;;;;;;;4958943;28;21501;-86
2021/12/13 04:34:06;;;;;;;79.20;31.67;;;;;;;;;;4961933;28;20471;-85
2021/12/13 04:36:34;;;;;;;98.00;32.33;;;;;;;;;;4965347;28;20982;-82
2021/12/13 04:39:04;;;;;;;85.33;32.20;;;;;;;;;;4955481;28;20483;-84
2021/12/13 04:41:32;;;;;;;103.37;34.57;;;;;;;;;;4965134;28;20545;-86
2021/12/13 04:43:59;;;;;;;105.63;33.60;;;;;;;;;;4957818;28;21102;-82
2021/12/13 04:46:28;;;;;;;92.97;32.70;;;;;;;;;;4959985;28;20476;-83
2021/12/13 04:49:04;;;;;;;90.50;32.30;;;;;;;;;;4960739;28;20486;-86
2021/12/13 04:51:38;;;;;;;88.67;29.87;;;;;;;;;;4982856;28;20540;-83
2021/12/13 04:54:06;;;;;;;79.80;30.93;;;;;;;;;;4981987;28;20982;-83
2021/12/13 04:56:33;;;;;;;77.50;31.50;;;;;;;;;;4974718;28;20533;-83
2021/12/13 04:59:02;;;;;;;89.10;30.80;;;;;;;;;;4974886;28;21017;-83
2021/12/13 05:01:28;;;;;;;78.90;29.63;;;;;;;;;;4977995;28;20482;-85
2021/12/13 05:03:56;;;;;;;81.63;33.13;;;;;;;;;;4979272;28;20500;-85
2021/12/13 05:06:25;;;;;;;86.43;32.00;;;;;;;;;;4980804;28;20469;-85
2021/12/13 05:08:53;;;;;;;109.73;31.13;;;;;;;;;;4976362;28;20471;-83
2021/12/13 05:11:21;;;;;;;86.70;29.43;;;;;;;;;;4975470;28;21026;-82
2021/12/13 05:13:49;;;;;;;81.60;30.57;;;;;;;;;;4977857;28;20486;-84
2021/12/13 05:16:17;;;;;;;86.30;28.33;;;;;;;;;;4980737;28;20459;-83
2021/12/13 05:18:45;;;;;;;83.93;31.20;;;;;;;;;;4977886;28;20471;-84
2021/12/13 05:21:13;;;;;;;72.40;26.93;;;;;;;;;;4975864;28;20489;-83
2021/12/13 05:23:47;;;;;;;61.60;26.10;;;;;;;;;;4975277;28;20519;-85
2021/12/13 05:26:14;;;;;;;70.00;25.93;;;;;;;;;;4976487;28;20491;-83
2021/12/13 05:28:45;;;;;;;79.63;27.60;;;;;;;;;;4977514;28;20483;-85
2021/12/13 05:31:16;;;;;;;85.27;28.67;;;;;;;;;;4976465;28;20487;-84
2021/12/13 05:33:45;;;;;;;68.93;27.07;;;;;;;;;;4978712;28;20537;-84
2021/12/13 05:36:19;;;;;;;68.30;27.20;;;;;;;;;;4976184;28;20467;-84
2021/12/13 05:38:47;;;;;;;66.03;26.60;;;;;;;;;;4975682;28;20477;-85
2021/12/13 05:41:19;;;;;;;51.60;23.50;;;;;;;;;;4977791;28;20890;-84
2021/12/13 05:43:48;;;;;;;65.47;24.80;;;;;;;;;;4977826;28;20833;-85
2021/12/13 05:46:16;;;;;;;66.37;23.83;;;;;;;;;;4980023;28;20885;-85
2021/12/13 05:48:45;;;;;;;51.50;23.10;;;;;;;;;;4973710;28;20487;-83
2021/12/13 05:51:19;;;;;;;51.27;25.37;;;;;;;;;;4973481;28;20490;-82
2021/12/13 05:53:47;;;;;;;59.80;24.90;;;;;;;;;;4980602;28;20597;-82
2021/12/13 05:56:15;;;;;;;68.90;24.80;;;;;;;;;;4978857;28;20470;-84
2021/12/13 05:58:43;;;;;;;55.13;23.50;;;;;;;;;;4977176;28;20467;-84
2021/12/13 06:01:13;;;;;;;54.30;22.77;;;;;;;;;;4978158;28;20986;-83
2021/12/13 06:03:42;;;;;;;44.27;21.77;;;;;;;;;;4977731;28;20997;-82
2021/12/13 06:06:10;;;;;;;53.67;22.50;;;;;;;;;;4976592;28;20534;-81
2021/12/13 06:08:41;;;;;;;49.63;22.53;;;;;;;;;;4972341;28;20467;-81
2021/12/13 06:11:09;;;;;;;48.97;21.17;;;;;;;;;;4973820;28;20499;-81
2021/12/13 06:13:52;;;;;;;52.70;24.57;;;;;;;;;;4972727;28;20475;-83
2021/12/13 06:16:32;;;;;;;51.03;22.67;;;;;;;;;;4971224;28;20475;-83
2021/12/13 06:19:02;;;;;;;51.53;22.40;;;;;;;;;;4979652;28;20481;-83
2021/12/13 06:21:31;;;;;;;49.00;23.60;;;;;;;;;;4972194;28;21716;-82
2021/12/13 06:23:58;;;;;;;49.53;24.50;;;;;;;;;;4975056;28;20474;-84
2021/12/13 06:26:26;;;;;;;42.13;23.03;;;;;;;;;;4971845;28;20451;-82
2021/12/13 06:28:54;;;;;;;53.87;22.10;;;;;;;;;;4966677;28;20479;-82
2021/12/13 06:31:22;;;;;;;48.93;23.70;;;;;;;;;;4970253;28;20482;-82
2021/12/13 06:33:50;;;;;;;46.20;23.83;;;;;;;;;;4974430;28;20514;-84
2021/12/13 06:36:24;;;;;;;45.83;22.43;;;;;;;;;;4972214;28;20454;-83
2021/12/13 06:38:54;;;;;;;43.10;21.80;;;;;;;;;;4974404;28;20478;-82
2021/12/13 06:41:32;;;;;;;49.77;22.57;;;;;;;;;;4975363;28;20491;-82
2021/12/13 06:43:59;;;;;;;50.20;23.37;;;;;;;;;;4975376;28;20466;-81
2021/12/13 06:46:40;;;;;;;41.87;21.37;;;;;;;;;;4972912;28;20459;-81
2021/12/13 06:49:09;;;;;;;42.10;21.77;;;;;;;;;;4968071;28;20893;-84
2021/12/13 06:51:38;;;;;;;42.07;22.83;;;;;;;;;;4975287;28;20526;-83
2021/12/13 06:54:06;;;;;;;42.10;21.80;;;;;;;;;;4967191;28;20475;-81
2021/12/13 06:56:33;;;;;;;43.83;21.30;;;;;;;;;;4967006;28;20481;-83
2021/12/13 06:59:00;;;;;;;44.60;20.70;;;;;;;;;;4967516;28;20482;-81
2021/12/13 07:01:27;;;;;;;45.90;21.20;;;;;;;;;;4968719;28;20486;-84
2021/12/13 07:03:56;;;;;;;37.20;20.37;;;;;;;;;;4972593;28;20479;-81
2021/12/13 07:06:23;;;;;;;37.67;20.40;;;;;;;;;;4965356;28;20826;-81
2021/12/13 07:09:00;;;;;;;36.17;17.53;;;;;;;;;;4972427;28;20521;-81
2021/12/13 07:11:38;;;;;;;35.63;18.83;;;;;;;;;;4979996;28;20989;-82
2021/12/13 07:14:06;;;;;;;33.00;18.90;;;;;;;;;;4975445;28;20471;-82
2021/12/13 07:16:33;;;;;;;36.23;18.93;;;;;;;;;;4973720;28;20466;-83
2021/12/13 07:19:06;;;;;;;26.50;16.57;;;;;;;;;;4971172;28;20489;-82
2021/12/13 07:21:34;;;;;;;36.17;17.40;;;;;;;;;;4970914;28;20506;-82
2021/12/13 07:24:05;;;;;;;36.50;17.40;;;;;;;;;;4973426;28;20474;-79
2021/12/13 07:26:34;;;;;;;32.80;17.70;;;;;;;;;;4977035;28;20474;-85
2021/12/13 07:29:00;;;;;;;33.83;16.93;;;;;;;;;;4975846;28;20891;-83
2021/12/13 07:31:27;;;;;;;31.37;15.00;;;;;;;;;;4972207;28;20744;-81
2021/12/13 07:33:53;;;;;;;25.10;15.77;;;;;;;;;;4973768;28;21001;-82
2021/12/13 07:36:24;;;;;;;29.70;16.47;;;;;;;;;;4976176;28;20962;-80
2021/12/13 07:38:52;;;;;;;27.30;15.47;;;;;;;;;;4972344;28;20478;-85
2021/12/13 07:41:20;;;;;;;36.07;15.70;;;;;;;;;;4972661;28;20463;-80
2021/12/13 07:43:46;;;;;;;32.40;16.50;;;;;;;;;;4970797;28;20471;-81
2021/12/13 07:46:23;;;;;;;32.73;16.77;;;;;;;;;;4976653;28;20506;-82
2021/12/13 07:48:53;;;;;;;30.67;17.90;;;;;;;;;;4974679;28;20581;-84
2021/12/13 07:51:22;;;;;;;36.67;18.70;;;;;;;;;;4970472;28;20994;-82
2021/12/13 07:53:51;;;;;;;38.47;18.77;;;;;;;;;;4979820;28;20998;-80
2021/12/13 07:56:21;;;;;;;42.13;18.17;;;;;;;;;;4977651;28;20458;-79
2021/12/13 07:58:48;;;;;;;33.23;18.80;;;;;;;;;;4975608;28;20471;-80
2021/12/13 08:01:17;;;;;;;41.30;19.30;;;;;;;;;;4977485;28;20479;-80
2021/12/13 08:03:44;;;;;;;34.50;21.43;;;;;;;;;;4982493;28;20474;-81
2021/12/13 08:06:10;;;;;;;36.20;20.10;;;;;;;;;;4981229;28;20977;-81
2021/12/13 08:08:45;;;;;;;44.80;22.10;;;;;;;;;;4971256;28;20476;-81
2021/12/13 08:11:12;;;;;;;36.57;21.10;;;;;;;;;;4985635;28;20465;-80
2021/12/13 08:13:39;;;;;;;39.30;20.43;;;;;;;;;;4982707;28;20898;-83
2021/12/13 08:16:06;;;;;;;42.77;22.20;;;;;;;;;;4982067;28;20494;-82
2021/12/13 08:18:35;;;;;;;42.80;21.33;;;;;;;;;;4981322;28;20463;-83
2021/12/13 08:21:02;;;;;;;41.30;23.30;;;;;;;;;;4984400;28;20478;-81
2021/12/13 08:23:32;;;;;;;38.07;22.20;;;;;;;;;;4989290;28;20905;-82
2021/12/13 08:26:00;;;;;;;40.60;22.20;;;;;;;;;;4979895;28;20451;-85
2021/12/13 08:28:35;;;;;;;42.60;22.80;;;;;;;;;;4981784;28;20477;-84
2021/12/13 08:31:03;;;;;;;38.03;19.87;;;;;;;;;;4986393;28;20474;-84
2021/12/13 08:33:32;;;;;;;41.03;21.57;;;;;;;;;;4980846;28;20478;-83
2021/12/13 08:36:01;;;;;;;34.50;22.37;;;;;;;;;;4984939;28;20458;-82
2021/12/13 08:38:33;;;;;;;37.33;21.33;;;;;;;;;;4982704;28;20491;-84
2021/12/13 08:41:00;;;;;;;43.97;23.03;;;;;;;;;;4980163;28;20478;-82
2021/12/13 08:43:40;;;;;;;30.63;19.83;;;;;;;;;;4982412;28;20467;-82
2021/12/13 08:46:06;;;;;;;40.20;20.63;;;;;;;;;;4982630;28;20434;-84
2021/12/13 08:48:42;;;;;;;38.63;21.63;;;;;;;;;;4981768;28;20471;-81
2021/12/13 08:51:08;;;;;;;39.67;23.27;;;;;;;;;;4977498;28;20493;-84
2021/12/13 08:53:36;;;;;;;42.70;21.23;;;;;;;;;;4978482;28;20541;-81
2021/12/13 08:56:06;;;;;;;35.53;20.63;;;;;;;;;;5104335;23;20518;-83
2021/12/13 08:58:34;;;;;;;37.97;20.50;;;;;;;;;;5021816;28;20558;-82
2021/12/13 09:01:04;;;;;;;38.03;21.93;;;;;;;;;;5025505;28;20457;-82
2021/12/13 09:03:35;;;;;;;39.13;20.90;;;;;;;;;;5022580;28;21408;-83
2021/12/13 09:06:05;;;;;;;29.70;19.67;;;;;;;;;;5025769;28;20480;-83
2021/12/13 09:08:33;;;;;;;32.47;19.67;;;;;;;;;;5024623;28;20887;-82
2021/12/13 09:11:02;;;;;;;34.73;19.80;;;;;;;;;;5025968;28;20835;-82
2021/12/13 09:13:39;;;;;;;35.87;20.43;;;;;;;;;;5025015;28;20469;-82
2021/12/13 09:16:07;;;;;;;37.50;21.07;;;;;;;;;;5025516;28;20464;-83
2021/12/13 09:18:33;;;;;;;36.40;20.67;;;;;;;;;;5022359;28;20519;-83
2021/12/13 09:21:00;;;;;;;32.90;20.73;;;;;;;;;;5024342;28;20480;-82
2021/12/13 09:23:27;;;;;;;40.13;21.07;;;;;;;;;;5024447;28;21049;-82
2021/12/13 09:25:55;;;;;;;36.23;21.53;;;;;;;;;;5024921;28;20462;-82
2021/12/13 09:28:23;;;;;;;42.33;21.33;;;;;;;;;;5022145;28;20452;-82
2021/12/13 09:30:51;;;;;;;44.97;21.83;;;;;;;;;;5023660;28;20437;-82
2021/12/13 09:33:20;;;;;;;36.77;21.67;;;;;;;;;;5024413;28;20489;-82
2021/12/13 09:35:48;;;;;;;35.73;19.50;;;;;;;;;;5026005;28;20469;-83
2021/12/13 09:38:26;;;;;;;37.40;19.70;;;;;;;;;;5023179;28;20449;-82
2021/12/13 09:40:55;;;;;;;39.33;22.53;;;;;;;;;;5023524;28;20437;-83
2021/12/13 09:43:22;;;;;;;37.50;21.40;;;;;;;;;;5023791;28;20449;-82
2021/12/13 09:45:52;;;;;;;39.83;20.93;;;;;;;;;;5022482;28;20477;-83
2021/12/13 09:48:24;;;;;;;36.80;21.40;;;;;;;;;;5021570;28;20497;-83
2021/12/13 09:50:52;;;;;;;36.87;20.70;;;;;;;;;;5023321;28;20453;-83
2021/12/13 09:53:22;;;;;;;40.97;22.37;;;;;;;;;;5023962;28;20473;-82
2021/12/13 09:55:50;;;;;;;42.03;21.80;;;;;;;;;;5024332;28;20476;-83
2021/12/13 09:58:17;;;;;;;39.17;22.03;;;;;;;;;;5023210;28;20495;-83
2021/12/13 10:00:46;;;;;;;44.83;23.23;;;;;;;;;;5024053;28;20475;-82
2021/12/13 10:03:14;;;;;;;45.90;22.13;;;;;;;;;;5023437;28;20513;-83
2021/12/13 10:05:43;;;;;;;38.60;22.77;;;;;;;;;;5024479;28;20483;-83
2021/12/13 10:08:11;;;;;;;43.07;22.63;;;;;;;;;;5023616;28;20947;-83
2021/12/13 10:10:40;;;;;;;41.30;23.13;;;;;;;;;;5025148;28;20449;-82
2021/12/13 10:13:08;;;;;;;42.67;25.30;;;;;;;;;;5023324;28;20516;-83
2021/12/13 10:15:36;;;;;;;46.17;24.73;;;;;;;;;;5024011;28;20464;-83
2021/12/13 10:18:05;;;;;;;43.20;23.87;;;;;;;;;;5024416;28;20532;-82
2021/12/13 10:20:34;;;;;;;45.47;25.47;;;;;;;;;;5024265;28;20469;-82
2021/12/13 10:23:02;;;;;;;50.07;24.13;;;;;;;;;;5024306;28;20500;-82
2021/12/13 10:25:30;;;;;;;43.70;22.93;;;;;;;;;;5023461;28;21016;-83
2021/12/13 10:27:57;;;;;;;42.50;25.50;;;;;;;;;;5024926;28;20449;-83
2021/12/13 10:30:25;;;;;;;42.23;24.63;;;;;;;;;;5022721;28;20473;-82
2021/12/13 10:32:53;;;;;;;48.63;24.90;;;;;;;;;;5023606;28;20485;-82
2021/12/13 10:35:22;;;;;;;46.50;25.10;;;;;;;;;;5023826;28;21082;-84
2021/12/13 10:37:50;;;;;;;50.43;25.33;;;;;;;;;;5025180;28;20446;-83
2021/12/13 10:40:19;;;;;;;48.70;26.03;;;;;;;;;;5023955;28;20472;-82
2021/12/13 10:42:48;;;;;;;47.10;25.80;;;;;;;;;;5024687;28;20823;-83
2021/12/13 10:45:17;;;;;;;44.90;26.03;;;;;;;;;;5023907;28;20511;-83
2021/12/13 10:47:45;;;;;;;46.47;26.60;;;;;;;;;;5023341;28;20448;-80
2021/12/13 10:50:13;;;;;;;51.27;26.73;;;;;;;;;;5025315;28;20488;-82
2021/12/13 10:52:41;;;;;;;50.53;24.43;;;;;;;;;;5025121;28;20535;-82
2021/12/13 10:55:10;;;;;;;42.37;23.70;;;;;;;;;;5022343;28;20474;-82
2021/12/13 10:57:43;;;;;;;47.57;25.67;;;;;;;;;;5022061;28;20446;-83
2021/12/13 11:00:10;;;;;;;49.40;26.97;;;;;;;;;;5020496;28;20487;-82
2021/12/13 11:02:37;;;;;;;47.37;26.00;;;;;;;;;;5020244;28;20515;-81
2021/12/13 11:05:05;;;;;;;45.50;25.93;;;;;;;;;;5023453;28;20535;-82
2021/12/13 11:07:31;;;;;;;49.40;25.80;;;;;;;;;;5024317;28;21091;-81
2021/12/13 11:09:59;;;;;;;41.63;25.97;;;;;;;;;;5021706;28;20476;-82
2021/12/13 11:12:27;;;;;;;45.83;25.80;;;;;;;;;;5022117;28;20507;-82
2021/12/13 11:14:57;;;;;;;54.33;26.80;;;;;;;;;;5020961;28;20469;-80
2021/12/13 11:17:26;;;;;;;46.60;27.00;;;;;;;;;;5022334;28;20503;-82
2021/12/13 11:19:55;;;;;;;41.70;24.87;;;;;;;;;;5021045;28;20487;-82
2021/12/13 11:22:22;;;;;;;45.03;24.83;;;;;;;;;;5023384;28;20904;-83
2021/12/13 11:24:50;;;;;;;54.87;26.50;;;;;;;;;;5020264;28;20482;-82
2021/12/13 11:27:19;;;;;;;47.30;26.20;;;;;;;;;;5022689;28;20481;-82
2021/12/13 11:29:46;;;;;;;49.30;26.13;;;;;;;;;;5021959;28;20481;-83
2021/12/13 11:32:42;;;;;;;44.20;26.03;;;;;;;;;;5022074;28;20444;-83
2021/12/13 11:35:27;;;;;;;42.63;25.20;;;;;;;;;;5022422;28;20551;-82
2021/12/13 11:38:00;;;;;;;42.73;26.33;;;;;;;;;;5022972;28;20454;-82
2021/12/13 11:40:37;;;;;;;41.57;24.93;;;;;;;;;;5021948;28;21013;-83
2021/12/13 11:43:11;;;;;;;48.57;27.97;;;;;;;;;;5024255;28;20452;-82
2021/12/13 11:45:49;;;;;;;43.07;26.57;;;;;;;;;;5021118;28;20473;-82
2021/12/13 11:48:33;;;;;;;47.70;27.63;;;;;;;;;;5020254;28;20460;-83
2021/12/13 11:51:06;;;;;;;50.20;27.40;;;;;;;;;;5023620;28;20461;-83
2021/12/13 11:53:50;;;;;;;45.90;27.70;;;;;;;;;;5021845;28;20473;-83
2021/12/13 11:56:29;;;;;;;47.00;29.40;;;;;;;;;;5021667;28;20480;-82
2021/12/13 11:59:07;;;;;;;47.60;26.40;;;;;;;;;;5021143;28;20616;-83
2021/12/13 12:01:47;;;;;;;47.40;29.00;;;;;;;;;;5023183;28;20456;-82
2021/12/13 12:04:51;;;;;;;43.80;27.40;;;;;;;;;;5022109;28;20472;-81
2021/12/13 12:07:26;;;;;;;46.63;27.20;;;;;;;;;;5022010;28;20492;-83
2021/12/13 12:09:59;;;;;;;44.97;27.03;;;;;;;;;;5018913;28;20497;-82
2021/12/13 12:12:38;;;;;;;49.37;28.23;;;;;;;;;;5026213;28;20472;-81
2021/12/13 12:15:04;;;;;;;44.07;27.60;;;;;;;;;;5025248;28;20885;-82
2021/12/13 12:17:31;;;;;;;49.20;29.37;;;;;;;;;;5025252;28;20456;-83
2021/12/13 12:19:58;;;;;;;40.70;27.00;;;;;;;;;;5025503;28;20472;-83
2021/12/13 12:22:31;;;;;;;44.80;26.57;;;;;;;;;;5027589;28;20504;-83
2021/12/13 12:24:59;;;;;;;44.87;26.97;;;;;;;;;;5027903;28;20538;-84
2021/12/13 12:27:27;;;;;;;42.30;26.90;;;;;;;;;;5024351;28;20507;-83
2021/12/13 12:29:54;;;;;;;43.70;27.47;;;;;;;;;;5026666;28;20491;-83
2021/12/13 12:32:22;;;;;;;41.60;25.33;;;;;;;;;;5030904;28;20476;-83
2021/12/13 12:34:52;;;;;;;41.57;24.40;;;;;;;;;;5030236;28;20484;-83
2021/12/13 12:37:43;;;;;;;44.40;27.27;;;;;;;;;;5030772;28;20466;-83
2021/12/13 12:40:21;;;;;;;42.50;26.87;;;;;;;;;;5032079;28;20456;-82
2021/12/13 12:42:48;;;;;;;41.93;27.03;;;;;;;;;;5032012;28;20472;-81
2021/12/13 12:45:20;;;;;;;41.60;28.00;;;;;;;;;;5028957;28;20478;-81
2021/12/13 12:48:20;;;;;;;36.83;24.80;;;;;;;;;;5025342;28;20480;-81
2021/12/13 12:50:54;;;;;;;36.17;25.00;;;;;;;;;;5027581;28;20887;-81
2021/12/13 12:53:24;;;;;;;40.73;25.53;;;;;;;;;;5028483;28;20508;-81
2021/12/13 12:55:55;;;;;;;40.90;26.97;;;;;;;;;;5029312;28;20487;-83
2021/12/13 12:58:22;;;;;;;40.13;25.17;;;;;;;;;;5026768;28;20477;-81
2021/12/13 13:00:49;;;;;;;40.53;24.27;;;;;;;;;;5028842;28;20450;-81
2021/12/13 13:03:21;;;;;;;36.97;23.50;;;;;;;;;;5026746;28;20518;-81
2021/12/13 13:05:47;;;;;;;37.43;23.07;;;;;;;;;;5026274;28;20481;-80
2021/12/13 13:08:16;;;;;;;39.27;24.00;;;;;;;;;;5026661;28;20548;-79
2021/12/13 13:10:49;;;;;;;42.20;25.07;;;;;;;;;;5027088;28;20461;-79
2021/12/13 13:13:18;;;;;;;35.70;22.93;;;;;;;;;;5024552;28;20487;-81
2021/12/13 13:15:45;;;;;;;31.03;22.60;;;;;;;;;;5026410;28;20554;-81
2021/12/13 13:18:13;;;;;;;32.43;22.00;;;;;;;;;;5028882;28;20542;-81
2021/12/13 13:20:41;;;;;;;36.67;23.33;;;;;;;;;;5028544;28;20515;-81
2021/12/13 13:23:08;;;;;;;34.30;23.53;;;;;;;;;;5026560;28;21042;-80
2021/12/13 13:25:35;;;;;;;35.40;23.60;;;;;;;;;;5029181;28;20471;-80
2021/12/13 13:28:04;;;;;;;32.43;20.93;;;;;;;;;;5027847;28;20496;-81
2021/12/13 13:30:34;;;;;;;32.47;21.10;;;;;;;;;;5027840;28;20458;-81
2021/12/13 13:33:01;;;;;;;37.77;21.43;;;;;;;;;;5025709;28;20895;-81
2021/12/13 13:35:27;;;;;;;29.93;20.40;;;;;;;;;;5027112;28;20569;-81
2021/12/13 13:37:54;;;;;;;32.17;21.03;;;;;;;;;;5026782;28;20462;-80
2021/12/13 13:40:22;;;;;;;31.07;21.63;;;;;;;;;;5025504;28;20515;-81
2021/12/13 13:42:50;;;;;;;36.93;21.00;;;;;;;;;;5025203;28;20477;-82
2021/12/13 13:45:18;;;;;;;31.23;20.60;;;;;;;;;;5028763;28;20475;-81
2021/12/13 13:47:48;;;;;;;30.77;21.23;;;;;;;;;;5026070;28;20469;-82
2021/12/13 13:50:18;;;;;;;32.43;20.57;;;;;;;;;;5027115;28;20503;-81
2021/12/13 13:52:45;;;;;;;35.00;22.93;;;;;;;;;;5027661;28;20473;-81
2021/12/13 13:55:19;;;;;;;28.43;20.10;;;;;;;;;;5027780;28;20476;-82
2021/12/13 13:57:49;;;;;;;30.73;22.83;;;;;;;;;;5027496;28;20471;-81
2021/12/13 14:00:15;;;;;;;32.07;21.43;;;;;;;;;;5028786;28;20524;-81
2021/12/13 14:02:42;;;;;;;26.63;18.27;;;;;;;;;;5029001;28;20480;-81
2021/12/13 14:05:10;;;;;;;29.00;19.23;;;;;;;;;;5027518;28;20500;-81
2021/12/13 14:07:38;;;;;;;30.93;20.00;;;;;;;;;;5028248;28;20570;-82
2021/12/13 14:10:08;;;;;;;28.57;20.33;;;;;;;;;;5028189;28;20469;-82
2021/12/13 14:12:37;;;;;;;30.20;20.40;;;;;;;;;;5027224;28;20527;-82
2021/12/13 14:15:07;;;;;;;32.67;21.90;;;;;;;;;;5028424;28;20534;-82
2021/12/13 14:17:35;;;;;;;28.03;19.37;;;;;;;;;;5029088;28;20485;-83
2021/12/13 14:20:05;;;;;;;28.60;20.30;;;;;;;;;;5027386;28;20698;-81
2021/12/13 14:22:33;;;;;;;27.60;19.30;;;;;;;;;;5026590;28;21039;-81
2021/12/13 14:24:59;;;;;;;27.07;19.90;;;;;;;;;;5025714;28;20528;-81
2021/12/13 14:27:28;;;;;;;29.87;19.50;;;;;;;;;;5027456;28;20477;-82
2021/12/13 14:30:07;;;;;;;27.30;19.97;;;;;;;;;;5027062;28;20473;-82
2021/12/13 14:32:33;;;;;;;32.23;19.90;;;;;;;;;;5028803;28;20469;-81
2021/12/13 14:35:11;;;;;;;29.20;20.73;;;;;;;;;;5026795;28;20489;-81